createdAt,value
2023-03-21T00:01:40.291Z,99303.13
2023-03-21T00:04:08.071Z,99300.44
2023-03-21T00:06:36.465Z,99292.72
2023-03-21T00:09:04.406Z,99291.75
2023-03-21T00:11:32.089Z,99283.91
2023-03-21T00:14:02.321Z,99288.38
2023-03-21T00:16:31.949Z,99285.69
2023-03-21T00:19:03.478Z,99288.16
2023-03-21T00:22:03.627Z,99289.28
2023-03-21T00:24:19.909Z,99282.41
2023-03-21T00:26:48.065Z,99279.63
2023-03-21T00:29:15.705Z,99280.59
2023-03-21T00:31:43.299Z,99281.38
2023-03-21T00:36:41.203Z,99280.31
2023-03-21T00:39:09.230Z,99277.03
2023-03-21T00:41:43.020Z,99277.03
2023-03-21T00:44:13.597Z,99261.81
2023-03-21T00:46:49.382Z,99275.06
2023-03-21T00:49:23.273Z,99263.53
2023-03-21T00:51:52.097Z,99257.53
2023-03-21T00:54:20.764Z,99271.63
2023-03-21T00:56:48.458Z,99270.72
2023-03-21T00:59:16.620Z,99259.19
2023-03-21T01:01:46.705Z,99255.66
2023-03-21T01:04:16.697Z,99262.28
2023-03-21T01:06:46.161Z,99260.53
2023-03-21T01:09:15.806Z,99243.91
2023-03-21T01:11:43.827Z,99249.97
2023-03-21T01:14:22.023Z,99241.91
2023-03-21T01:16:50.952Z,99242.88
2023-03-21T01:19:37.966Z,99244.59
2023-03-21T01:22:09.829Z,99238.47
2023-03-21T01:24:40.499Z,99232.31
2023-03-21T01:27:14.319Z,99235.00
2023-03-21T01:29:42.103Z,99231.47
2023-03-21T01:32:09.963Z,99224.53
2023-03-21T01:34:37.548Z,99227.13
2023-03-21T01:37:05.232Z,99235.81
2023-03-21T01:39:35.296Z,99233.19
2023-03-21T01:42:03.003Z,99217.09
2023-03-21T01:44:30.811Z,99229.97
2023-03-21T01:47:10.562Z,99224.13
2023-03-21T01:49:45.748Z,99224.94
2023-03-21T01:52:26.423Z,99219.56
2023-03-21T01:55:03.919Z,99213.66
2023-03-21T01:57:42.356Z,99221.22
2023-03-21T02:00:15.119Z,99217.00
2023-03-21T02:02:58.282Z,99217.00
2023-03-21T02:05:34.591Z,99215.19
2023-03-21T02:08:02.424Z,99215.97
2023-03-21T02:10:32.730Z,99215.19
2023-03-21T02:13:08.138Z,99208.25
2023-03-21T02:15:36.522Z,99211.03
2023-03-21T02:18:08.327Z,99209.22
2023-03-21T02:20:52.277Z,99204.13
2023-03-21T02:23:40.733Z,99199.69
2023-03-21T02:26:43.916Z,99190.88
2023-03-21T02:29:22.701Z,99184.78
2023-03-21T02:31:54.664Z,99186.44
2023-03-21T02:34:43.306Z,99188.09
2023-03-21T02:37:28.905Z,99189.88
2023-03-21T02:40:11.074Z,99188.03
2023-03-21T02:42:51.683Z,99188.09
2023-03-21T02:45:28.110Z,99184.50
2023-03-21T02:47:59.745Z,99181.06
2023-03-21T02:50:29.894Z,99183.88
2023-03-21T02:52:59.997Z,99176.88
2023-03-21T02:55:28.605Z,99177.59
2023-03-21T02:58:01.473Z,99181.88
2023-03-21T03:00:35.913Z,99178.44
2023-03-21T03:03:10.028Z,99174.16
2023-03-21T03:05:44.488Z,99162.03
2023-03-21T03:08:32.476Z,99170.63
2023-03-21T03:11:16.198Z,99164.41
2023-03-21T03:13:58.127Z,99162.47
2023-03-21T03:16:30.116Z,99163.38
2023-03-21T03:18:59.682Z,99165.53
2023-03-21T03:21:30.585Z,99162.78
2023-03-21T03:24:02.927Z,99165.63
2023-03-21T03:26:34.195Z,99146.75
2023-03-21T03:29:05.182Z,99156.94
2023-03-21T03:31:35.352Z,99151.59
2023-03-21T03:34:07.151Z,99152.38
2023-03-21T03:36:39.204Z,99149.75
2023-03-21T03:39:10.492Z,99145.16
2023-03-21T03:42:07.764Z,99154.78
2023-03-21T03:44:32.201Z,99156.56
2023-03-21T03:47:02.973Z,99152.13
2023-03-21T03:49:33.222Z,99151.25
2023-03-21T03:52:04.252Z,99152.91
2023-03-21T03:54:37.322Z,99147.03
2023-03-21T03:57:06.045Z,99150.28
2023-03-21T03:59:35.447Z,99160.81
2023-03-21T04:02:03.092Z,99156.97
2023-03-21T04:04:31.891Z,99157.25
2023-03-21T04:07:00.011Z,99146.34
2023-03-21T04:09:42.580Z,99156.47
2023-03-21T04:12:12.795Z,99165.00
2023-03-21T04:14:45.699Z,99171.97
2023-03-21T04:17:14.988Z,99165.94
2023-03-21T04:19:42.678Z,99165.81
2023-03-21T04:22:11.965Z,99162.44
2023-03-21T04:24:39.894Z,99152.84
2023-03-21T04:27:07.757Z,99160.66
2023-03-21T04:29:36.834Z,99156.28
2023-03-21T04:32:04.579Z,99165.06
2023-03-21T04:34:32.450Z,99158.94
2023-03-21T04:37:00.195Z,99154.56
2023-03-21T04:39:27.831Z,99156.84
2023-03-21T04:41:55.413Z,99157.06
2023-03-21T04:44:23.067Z,99152.78
2023-03-21T04:46:52.062Z,99151.00
2023-03-21T04:49:19.972Z,99154.44
2023-03-21T04:51:47.812Z,99148.97
2023-03-21T04:54:18.252Z,99152.34
2023-03-21T04:56:45.850Z,99155.19
2023-03-21T04:59:15.973Z,99154.16
2023-03-21T05:01:44.860Z,99132.81
2023-03-21T05:04:15.761Z,99145.16
2023-03-21T05:06:44.390Z,99151.94
2023-03-21T05:09:12.588Z,99146.06
2023-03-21T05:11:41.335Z,99149.50
2023-03-21T05:14:10.426Z,99137.44
2023-03-21T05:16:45.209Z,99148.63
2023-03-21T05:19:14.541Z,99143.44
2023-03-21T05:21:43.402Z,99146.88
2023-03-21T05:24:13.094Z,99143.47
2023-03-21T05:26:40.728Z,99142.16
2023-03-21T05:29:09.032Z,99143.97
2023-03-21T05:31:36.809Z,99138.56
2023-03-21T05:34:04.478Z,99132.44
2023-03-21T05:36:36.044Z,99133.56
2023-03-21T05:39:04.520Z,99136.72
2023-03-21T05:41:32.649Z,99140.91
2023-03-21T05:44:00.615Z,99126.97
2023-03-21T05:46:28.302Z,99138.81
2023-03-21T05:48:56.089Z,99142.22
2023-03-21T05:51:23.891Z,99145.66
2023-03-21T05:53:52.931Z,99139.59
2023-03-21T05:56:20.615Z,99144.47
2023-03-21T05:58:48.204Z,99140.97
2023-03-21T06:01:16.270Z,99137.59
2023-03-21T06:03:43.947Z,99140.97
2023-03-21T06:06:11.648Z,99141.66
2023-03-21T06:08:39.358Z,99153.66
2023-03-21T06:11:12.433Z,99150.28
2023-03-21T06:13:40.450Z,99145.84
2023-03-21T06:16:08.821Z,99137.50
2023-03-21T06:18:36.611Z,99132.47
2023-03-21T06:21:04.315Z,99148.00
2023-03-21T06:23:31.984Z,99151.44
2023-03-21T06:25:59.756Z,99151.09
2023-03-21T06:28:28.779Z,99154.47
2023-03-21T06:30:56.412Z,99153.47
2023-03-21T06:33:24.017Z,99151.53
2023-03-21T06:35:53.392Z,99154.91
2023-03-21T06:38:21.117Z,99158.00
2023-03-21T06:40:49.303Z,99146.38
2023-03-21T06:43:17.282Z,99157.78
2023-03-21T06:45:46.228Z,99156.00
2023-03-21T06:48:14.112Z,99147.25
2023-03-21T06:50:41.714Z,99149.03
2023-03-21T06:53:09.353Z,99153.00
2023-03-21T06:55:37.198Z,99158.50
2023-03-21T06:58:04.945Z,99160.97
2023-03-21T07:00:32.746Z,99157.41
2023-03-21T07:03:02.082Z,99158.91
2023-03-21T07:05:29.754Z,99147.16
2023-03-21T07:07:57.523Z,99159.22
2023-03-21T07:10:25.156Z,99159.66
2023-03-21T07:12:52.783Z,99164.47
2023-03-21T07:15:20.397Z,99159.16
2023-03-21T07:17:47.996Z,99157.06
2023-03-21T07:20:17.665Z,99166.78
2023-03-21T07:22:45.643Z,99161.31
2023-03-21T07:25:13.315Z,99158.31
2023-03-21T07:27:41.595Z,99153.69
2023-03-21T07:30:10.959Z,99166.81
2023-03-21T07:32:39.017Z,99159.44
2023-03-21T07:35:07.723Z,99157.66
2023-03-21T07:37:38.164Z,99157.78
2023-03-21T07:40:10.468Z,99157.78
2023-03-21T07:42:38.157Z,99155.94
2023-03-21T07:45:07.775Z,99153.56
2023-03-21T07:47:35.853Z,99152.38
2023-03-21T07:50:04.418Z,99156.81
2023-03-21T07:52:32.590Z,99160.22
2023-03-21T07:55:01.490Z,99156.75
2023-03-21T07:57:29.075Z,99164.19
2023-03-21T07:59:56.691Z,99158.72
2023-03-21T08:02:24.432Z,99162.97
2023-03-21T08:04:52.388Z,99157.78
2023-03-21T08:07:20.522Z,99160.84
2023-03-21T08:09:48.132Z,99162.63
2023-03-21T08:12:17.070Z,99164.53
2023-03-21T08:14:44.630Z,99166.38
2023-03-21T08:17:12.205Z,99155.38
2023-03-21T08:19:40.031Z,99159.94
2023-03-21T08:22:07.635Z,99158.81
2023-03-21T08:24:35.610Z,99152.09
2023-03-21T08:27:03.368Z,99158.16
2023-03-21T08:29:32.294Z,99159.59
2023-03-21T08:31:59.903Z,99168.34
2023-03-21T08:34:27.761Z,99164.28
2023-03-21T08:36:55.361Z,99160.97
2023-03-21T08:39:24.841Z,99168.88
2023-03-21T08:41:52.515Z,99161.06
2023-03-21T08:44:20.265Z,99164.00
2023-03-21T08:46:49.141Z,99162.56
2023-03-21T08:49:16.720Z,99167.44
2023-03-21T08:51:45.625Z,99174.47
2023-03-21T08:54:19.796Z,99172.63
2023-03-21T08:56:47.425Z,99176.13
2023-03-21T08:59:15.434Z,99170.78
2023-03-21T09:01:43.108Z,99177.72
2023-03-21T09:04:12.211Z,99184.28
2023-03-21T09:06:40.907Z,99176.31
2023-03-21T09:09:09.421Z,99172.41
2023-03-21T09:11:37.078Z,99170.91
2023-03-21T09:14:04.654Z,99169.25
2023-03-21T09:16:32.642Z,99168.41
2023-03-21T09:19:00.471Z,99174.13
2023-03-21T09:21:29.535Z,99172.91
2023-03-21T09:23:59.390Z,99169.72
2023-03-21T09:26:28.094Z,99170.28
2023-03-21T09:28:56.196Z,99167.72
2023-03-21T09:31:24.822Z,99170.78
2023-03-21T09:33:53.532Z,99167.44
2023-03-21T09:36:24.860Z,99168.56
2023-03-21T09:38:54.597Z,99167.72
2023-03-21T09:41:32.088Z,99165.56
2023-03-21T09:44:19.608Z,99167.16
2023-03-21T09:46:51.609Z,99168.13
2023-03-21T09:49:22.039Z,99175.91
2023-03-21T09:51:52.766Z,99172.56
2023-03-21T09:54:24.883Z,99170.34
2023-03-21T09:56:55.838Z,99161.72
2023-03-21T09:59:27.499Z,99169.16
2023-03-21T10:01:55.957Z,99169.78
2023-03-21T10:04:24.636Z,99171.28
2023-03-21T10:06:57.558Z,99165.72
2023-03-21T10:09:28.201Z,99166.94
2023-03-21T10:11:58.601Z,99168.94
2023-03-21T10:14:29.876Z,99166.88
2023-03-21T10:16:58.842Z,99158.44
2023-03-21T10:19:28.229Z,99166.88
2023-03-21T10:22:01.406Z,99169.72
2023-03-21T10:24:32.960Z,99167.69
2023-03-21T10:27:01.579Z,99163.28
2023-03-21T10:29:32.811Z,99166.56
2023-03-21T10:32:00.541Z,99158.53
2023-03-21T10:34:33.349Z,99150.31
2023-03-21T10:37:02.375Z,99162.66
2023-03-21T10:39:34.567Z,99160.22
2023-03-21T10:42:02.432Z,99162.06
2023-03-21T10:44:31.613Z,99155.50
2023-03-21T10:47:00.880Z,99155.09
2023-03-21T10:49:35.873Z,99158.72
2023-03-21T10:52:09.594Z,99157.78
2023-03-21T10:54:38.539Z,99151.53
2023-03-21T10:57:07.750Z,99159.59
2023-03-21T10:59:38.237Z,99147.09
2023-03-21T11:02:06.684Z,99149.53
2023-03-21T11:04:34.559Z,99141.03
2023-03-21T11:07:06.973Z,99142.47
2023-03-21T11:09:53.531Z,99145.69
2023-03-21T11:12:30.535Z,99144.47
2023-03-21T11:14:58.155Z,99135.97
2023-03-21T11:17:30.164Z,99144.81
2023-03-21T11:19:59.291Z,99130.41
2023-03-21T11:22:29.575Z,99135.81
2023-03-21T11:25:00.899Z,99133.94
2023-03-21T11:27:30.035Z,99132.00
2023-03-21T11:29:59.823Z,99131.31
2023-03-21T11:32:32.987Z,99131.16
2023-03-21T11:35:02.113Z,99130.00
2023-03-21T11:37:33.424Z,99124.72
2023-03-21T11:40:14.120Z,99124.56
2023-03-21T11:42:44.148Z,99123.47
2023-03-21T11:45:15.322Z,99116.38
2023-03-21T11:47:43.199Z,99119.47
2023-03-21T11:50:22.952Z,99118.19
2023-03-21T11:53:04.073Z,99113.16
2023-03-21T11:55:42.834Z,99113.91
2023-03-21T11:58:36.832Z,99109.47
2023-03-21T12:01:10.172Z,99112.75
2023-03-21T12:04:05.728Z,99112.47
2023-03-21T12:06:37.209Z,99102.81
2023-03-21T12:09:16.258Z,99105.00
2023-03-21T12:11:53.617Z,99096.13
2023-03-21T12:14:29.964Z,99092.41
2023-03-21T12:17:06.406Z,99088.22
2023-03-21T12:19:53.411Z,99082.25
2023-03-21T12:22:28.323Z,99081.22
2023-03-21T12:24:58.630Z,99077.66
2023-03-21T12:27:37.489Z,99081.41
2023-03-21T12:30:15.317Z,99071.13
2023-03-21T12:32:53.496Z,99078.75
2023-03-21T12:35:31.610Z,99078.66
2023-03-21T12:38:08.013Z,99068.34
2023-03-21T12:40:43.808Z,99068.31
2023-03-21T12:43:28.610Z,99069.97
2023-03-21T12:45:59.042Z,99055.28
2023-03-21T12:48:33.794Z,99057.63
2023-03-21T12:51:03.704Z,99051.56
2023-03-21T12:53:41.592Z,99051.47
2023-03-21T12:56:12.674Z,99052.56
2023-03-21T12:58:47.002Z,99054.91
2023-03-21T13:01:16.667Z,99050.78
2023-03-21T13:03:50.874Z,99049.22
2023-03-21T13:06:19.452Z,99046.66
2023-03-21T13:08:49.723Z,99040.53
2023-03-21T13:11:21.163Z,99028.25
2023-03-21T13:13:52.628Z,99030.34
2023-03-21T13:16:23.006Z,99022.34
2023-03-21T13:18:57.461Z,99020.94
2023-03-21T13:21:35.779Z,99016.28
2023-03-21T13:24:05.119Z,99019.63
2023-03-21T13:26:34.798Z,99012.63
2023-03-21T13:29:13.902Z,99012.03
2023-03-21T13:31:51.969Z,99009.00
2023-03-21T13:34:22.566Z,99009.91
2023-03-21T13:36:52.329Z,99006.91
2023-03-21T13:39:21.784Z,99009.00
2023-03-21T13:41:50.242Z,98995.00
2023-03-21T13:44:25.790Z,98998.34
2023-03-21T13:46:56.265Z,98998.19
2023-03-21T13:49:28.554Z,98996.72
2023-03-21T13:51:58.256Z,98995.94
2023-03-21T13:54:45.677Z,98994.69
2023-03-21T13:57:23.437Z,98994.84
2023-03-21T14:00:17.685Z,98989.88
2023-03-21T14:02:54.928Z,98989.34
2023-03-21T14:05:24.067Z,98976.22
2023-03-21T14:07:59.346Z,98973.88
2023-03-21T14:10:32.753Z,98961.84
2023-03-21T14:13:01.946Z,98956.09
2023-03-21T14:15:41.012Z,98942.97
2023-03-21T14:18:27.899Z,98930.63
2023-03-21T14:21:07.025Z,98937.22
2023-03-21T14:23:39.696Z,98943.97
2023-03-21T14:26:09.520Z,98935.88
2023-03-21T14:28:37.990Z,98925.66
2023-03-21T14:31:07.998Z,98939.47
2023-03-21T14:33:38.023Z,98963.69
2023-03-21T14:36:08.997Z,98961.41
2023-03-21T14:38:38.503Z,98952.03
2023-03-21T14:41:07.250Z,98945.81
2023-03-21T14:43:34.848Z,98945.25
2023-03-21T14:46:02.959Z,98939.44
2023-03-21T14:48:33.029Z,98935.00
2023-03-21T14:51:03.764Z,98929.81
2023-03-21T14:53:33.143Z,98924.75
2023-03-21T14:56:04.943Z,98925.00
2023-03-21T14:58:33.001Z,98928.13
2023-03-21T15:01:04.074Z,98919.81
2023-03-21T15:03:33.492Z,98922.44
2023-03-21T15:06:01.410Z,98905.94
2023-03-21T15:08:30.102Z,98901.72
2023-03-21T15:11:08.143Z,98888.59
2023-03-21T15:13:37.910Z,98878.72
2023-03-21T15:16:06.128Z,98896.69
2023-03-21T15:18:37.305Z,98900.25
2023-03-21T15:21:07.854Z,98906.00
2023-03-21T15:23:38.352Z,98902.97
2023-03-21T15:26:06.911Z,98914.69
2023-03-21T15:28:36.145Z,98904.69
2023-03-21T15:31:04.410Z,98906.56
2023-03-21T15:33:32.101Z,98904.47
2023-03-21T15:36:01.168Z,98918.44
2023-03-21T15:38:32.829Z,98920.06
2023-03-21T15:41:18.055Z,98917.13
2023-03-21T15:43:46.814Z,98914.22
2023-03-21T15:46:15.668Z,98911.66
2023-03-21T15:48:43.771Z,98912.69
2023-03-21T15:51:21.006Z,98909.13
2023-03-21T15:53:48.874Z,98905.22
2023-03-21T15:56:17.009Z,98899.94
2023-03-21T15:58:47.027Z,98901.63
2023-03-21T16:01:18.158Z,98896.28
2023-03-21T16:03:47.960Z,98900.88
2023-03-21T16:06:21.926Z,98901.19
2023-03-21T16:08:50.969Z,98886.84
2023-03-21T16:11:20.830Z,98897.09
2023-03-21T16:13:48.448Z,98901.72
2023-03-21T16:16:18.482Z,98900.41
2023-03-21T16:18:46.336Z,98898.34
2023-03-21T16:21:14.649Z,98896.75
2023-03-21T16:23:43.883Z,98897.00
2023-03-21T16:26:13.080Z,98902.91
2023-03-21T16:28:40.757Z,98897.41
2023-03-21T16:31:12.889Z,98882.75
2023-03-21T16:33:40.530Z,98884.38
2023-03-21T16:36:13.451Z,98888.78
2023-03-21T16:38:41.002Z,98882.66
2023-03-21T16:41:12.332Z,98880.88
2023-03-21T16:43:43.186Z,98880.09
2023-03-21T16:46:13.750Z,98879.44
2023-03-21T16:48:41.438Z,98867.34
2023-03-21T16:51:13.857Z,98877.28
2023-03-21T16:53:41.466Z,98871.47
2023-03-21T16:56:15.545Z,98861.41
2023-03-21T16:58:43.248Z,98859.94
2023-03-21T17:01:13.827Z,98859.31
2023-03-21T17:03:41.625Z,98862.88
2023-03-21T17:06:14.486Z,98863.91
2023-03-21T17:08:42.087Z,98857.06
2023-03-21T17:11:12.468Z,98855.38
2023-03-21T17:13:40.422Z,98851.66
2023-03-21T17:16:08.629Z,98854.44
2023-03-21T17:18:36.300Z,98852.88
2023-03-21T17:21:04.229Z,98855.13
2023-03-21T17:23:32.048Z,98861.50
2023-03-21T17:25:59.578Z,98858.00
2023-03-21T17:28:28.596Z,98851.56
2023-03-21T17:30:56.260Z,98853.19
2023-03-21T17:33:23.878Z,98848.31
2023-03-21T17:35:51.630Z,98859.47
2023-03-21T17:38:19.276Z,98851.16
2023-03-21T17:40:47.722Z,98859.13
2023-03-21T17:43:19.252Z,98852.53
2023-03-21T17:45:48.265Z,98855.16
2023-03-21T17:48:16.203Z,98859.72
2023-03-21T17:50:43.935Z,98858.09
2023-03-21T17:53:11.644Z,98855.16
2023-03-21T17:55:39.783Z,98871.91
2023-03-21T17:58:07.424Z,98864.28
2023-03-21T18:00:35.865Z,98880.31
2023-03-21T18:03:08.016Z,98877.25
2023-03-21T18:05:35.669Z,98873.84
2023-03-21T18:08:11.032Z,98876.81
2023-03-21T18:10:40.951Z,98876.69
2023-03-21T18:13:08.943Z,98879.53
2023-03-21T18:15:38.335Z,98872.78
2023-03-21T18:18:07.448Z,98871.97
2023-03-21T18:20:53.504Z,98871.13
2023-03-21T18:23:21.851Z,98867.34
2023-03-21T18:25:49.807Z,98865.34
2023-03-21T18:28:20.432Z,98865.50
2023-03-21T18:33:37.913Z,98876.94
2023-03-21T18:36:07.864Z,98872.16
2023-03-21T18:38:36.505Z,98878.00
2023-03-21T18:41:04.629Z,98883.50
2023-03-21T18:44:00.471Z,98888.25
2023-03-21T18:46:20.083Z,98886.88
2023-03-21T18:48:49.251Z,98893.84
2023-03-21T18:51:17.696Z,98890.16
2023-03-21T18:53:45.629Z,98894.03
2023-03-21T18:56:46.600Z,98898.38
2023-03-21T18:59:01.881Z,98900.22
2023-03-21T19:01:29.633Z,98896.81
2023-03-21T19:04:23.039Z,98899.16
2023-03-21T19:06:48.222Z,98904.63
2023-03-21T19:09:17.988Z,98896.16
2023-03-21T19:11:45.899Z,98894.91
2023-03-21T19:14:14.834Z,98892.66
2023-03-21T19:17:18.357Z,98885.75
2023-03-21T19:19:32.034Z,98886.69
2023-03-21T19:21:59.734Z,98875.75
2023-03-21T19:24:28.901Z,98878.72
2023-03-21T19:26:56.890Z,98872.75
2023-03-21T19:29:25.157Z,98875.50
2023-03-21T19:31:52.999Z,98879.13
2023-03-21T19:34:20.937Z,98883.13
2023-03-21T19:36:52.067Z,98884.06
2023-03-21T19:39:22.115Z,98880.38
2023-03-21T19:41:50.354Z,98883.66
2023-03-21T19:44:18.269Z,98886.22
2023-03-21T19:46:45.966Z,98885.25
2023-03-21T19:49:13.773Z,98882.69
2023-03-21T19:51:41.407Z,98877.81
2023-03-21T19:54:10.315Z,98873.28
2023-03-21T19:56:37.982Z,98873.06
2023-03-21T19:59:06.832Z,98877.41
2023-03-21T20:01:34.465Z,98885.56
2023-03-21T20:04:04.117Z,98884.03
2023-03-21T20:06:31.778Z,98890.47
2023-03-21T20:11:48.361Z,98888.16
2023-03-21T20:14:15.950Z,98889.75
2023-03-21T20:16:43.953Z,98882.06
2023-03-21T20:19:15.943Z,98880.41
2023-03-21T20:21:49.674Z,98890.53
2023-03-21T20:24:20.036Z,98889.16
2023-03-21T20:26:53.373Z,98896.25
2023-03-21T20:32:08.727Z,98897.88
2023-03-21T20:34:37.010Z,98899.66
2023-03-21T20:37:06.119Z,98901.66
2023-03-21T20:39:34.105Z,98901.28
2023-03-21T20:42:03.029Z,98899.94
2023-03-21T20:47:18.847Z,98903.31
2023-03-21T20:49:46.581Z,98901.47
2023-03-21T20:52:54.485Z,98895.66
2023-03-21T20:55:02.981Z,98895.72
2023-03-21T20:57:32.608Z,98886.59
2023-03-21T21:00:00.197Z,98891.69
2023-03-21T21:02:28.226Z,98887.22
2023-03-21T21:05:24.154Z,98887.03
2023-03-21T21:07:43.824Z,98884.59
2023-03-21T21:10:12.925Z,98891.63
2023-03-21T21:12:45.108Z,98888.25
2023-03-21T21:15:14.152Z,98894.13
2023-03-21T21:20:29.746Z,98893.13
2023-03-21T21:22:59.984Z,98894.53
2023-03-21T21:25:28.935Z,98902.53
2023-03-21T21:27:57.900Z,98897.78
2023-03-21T21:30:25.966Z,98895.03
2023-03-21T21:32:53.886Z,98903.53
2023-03-21T21:35:22.324Z,98887.78
2023-03-21T21:37:51.081Z,98903.00
2023-03-21T21:40:20.647Z,98895.97
2023-03-21T21:42:48.509Z,98892.44
2023-03-21T21:45:18.250Z,98888.66
2023-03-21T21:47:46.562Z,98885.09
2023-03-21T21:50:14.524Z,98885.91
2023-03-21T21:52:43.611Z,98883.41
2023-03-21T21:55:13.077Z,98890.09
2023-03-21T21:57:41.064Z,98890.34
2023-03-21T22:00:13.075Z,98880.94
2023-03-21T22:02:42.456Z,98879.47
2023-03-21T22:05:10.932Z,98870.63
2023-03-21T22:07:39.122Z,98868.97
2023-03-21T22:10:07.949Z,98866.84
2023-03-21T22:12:36.231Z,98868.56
2023-03-21T22:15:05.287Z,98860.66
2023-03-21T22:17:32.995Z,98865.06
2023-03-21T22:20:06.473Z,98863.22
2023-03-21T22:22:34.680Z,98858.84
2023-03-21T22:25:02.374Z,98856.28
2023-03-21T22:27:30.549Z,98852.72
2023-03-21T22:30:04.341Z,98858.22
2023-03-21T22:32:31.990Z,98849.56
2023-03-21T22:35:02.271Z,98846.56
2023-03-21T22:37:31.855Z,98854.88
2023-03-21T22:39:59.762Z,98855.97
2023-03-21T22:42:27.774Z,98853.28
2023-03-21T22:44:55.785Z,98857.69
2023-03-21T22:47:23.713Z,98853.16
2023-03-21T22:49:51.686Z,98851.38
2023-03-21T22:52:19.885Z,98854.81
2023-03-21T22:54:49.709Z,98848.81
2023-03-21T22:57:18.316Z,98858.91
2023-03-21T22:59:45.916Z,98862.31
2023-03-21T23:02:13.915Z,98859.63
2023-03-21T23:04:41.923Z,98858.03
2023-03-21T23:07:09.699Z,98851.19
2023-03-21T23:09:37.811Z,98853.69
2023-03-21T23:12:07.425Z,98856.22
2023-03-21T23:14:35.248Z,98852.47
2023-03-21T23:17:02.836Z,98855.34
2023-03-21T23:19:32.204Z,98852.66
2023-03-21T23:22:00.107Z,98851.81
2023-03-21T23:24:28.141Z,98852.66
2023-03-21T23:26:56.024Z,98851.00
2023-03-21T23:29:25.352Z,98849.38
2023-03-21T23:31:53.134Z,98845.09
2023-03-21T23:34:20.866Z,98849.56
2023-03-21T23:36:49.120Z,98843.63
2023-03-21T23:39:18.816Z,98842.84
2023-03-21T23:41:46.862Z,98838.75
2023-03-21T23:44:15.223Z,98834.47
2023-03-21T23:46:44.203Z,98835.13
2023-03-21T23:49:12.014Z,98836.84
2023-03-21T23:51:39.614Z,98835.06
2023-03-21T23:54:07.518Z,98829.88
2023-03-21T23:56:35.604Z,98827.94
2023-03-21T23:59:03.255Z,98833.25
